sensor_id;sensor_type;location;lat;lon;timestamp;P1;durP1;ratioP1;P2;durP2;ratioP2
81531;SDS011;70975;45.808;15.808;2023-06-26T00:02:11;11.10;;;7.43;;
81531;SDS011;70975;45.808;15.808;2023-06-26T00:04:36;12.52;;;7.43;;
81531;SDS011;70975;45.808;15.808;2023-06-26T00:07:02;10.45;;;7.25;;
81531;SDS011;70975;45.808;15.808;2023-06-26T00:09:29;11.43;;;7.68;;
81531;SDS011;70975;45.808;15.808;2023-06-26T00:11:54;12.25;;;8.13;;
81531;SDS011;70975;45.808;15.808;2023-06-26T00:14:19;11.77;;;7.68;;
81531;SDS011;70975;45.808;15.808;2023-06-26T00:16:46;11.95;;;7.20;;
81531;SDS011;70975;45.808;15.808;2023-06-26T00:19:12;12.07;;;7.22;;
81531;SDS011;70975;45.808;15.808;2023-06-26T00:21:37;11.20;;;7.45;;
81531;SDS011;70975;45.808;15.808;2023-06-26T00:24:02;10.90;;;7.78;;
81531;SDS011;70975;45.808;15.808;2023-06-26T00:26:28;11.38;;;7.70;;
81531;SDS011;70975;45.808;15.808;2023-06-26T00:28:53;9.90;;;7.38;;
81531;SDS011;70975;45.808;15.808;2023-06-26T00:31:19;11.95;;;7.93;;
81531;SDS011;70975;45.808;15.808;2023-06-26T00:33:44;11.52;;;7.80;;
81531;SDS011;70975;45.808;15.808;2023-06-26T00:36:09;11.57;;;7.90;;
81531;SDS011;70975;45.808;15.808;2023-06-26T00:38:35;11.52;;;7.93;;
81531;SDS011;70975;45.808;15.808;2023-06-26T00:41:00;11.85;;;7.40;;
81531;SDS011;70975;45.808;15.808;2023-06-26T00:43:26;11.70;;;7.60;;
81531;SDS011;70975;45.808;15.808;2023-06-26T00:45:51;10.57;;;7.63;;
81531;SDS011;70975;45.808;15.808;2023-06-26T00:48:17;16.88;;;8.32;;
81531;SDS011;70975;45.808;15.808;2023-06-26T00:50:42;9.38;;;7.18;;
81531;SDS011;70975;45.808;15.808;2023-06-26T00:53:11;13.18;;;8.18;;
81531;SDS011;70975;45.808;15.808;2023-06-26T00:55:36;11.63;;;7.93;;
81531;SDS011;70975;45.808;15.808;2023-06-26T00:58:02;12.10;;;7.45;;
81531;SDS011;70975;45.808;15.808;2023-06-26T01:00:27;11.15;;;8.18;;
81531;SDS011;70975;45.808;15.808;2023-06-26T01:02:53;12.18;;;8.07;;
81531;SDS011;70975;45.808;15.808;2023-06-26T01:05:20;13.07;;;7.93;;
81531;SDS011;70975;45.808;15.808;2023-06-26T01:07:47;12.43;;;8.38;;
81531;SDS011;70975;45.808;15.808;2023-06-26T01:10:13;12.80;;;8.45;;
81531;SDS011;70975;45.808;15.808;2023-06-26T01:12:39;13.63;;;7.55;;
81531;SDS011;70975;45.808;15.808;2023-06-26T01:15:04;14.90;;;8.45;;
81531;SDS011;70975;45.808;15.808;2023-06-26T01:17:30;13.80;;;8.25;;
81531;SDS011;70975;45.808;15.808;2023-06-26T01:19:57;13.25;;;8.80;;
81531;SDS011;70975;45.808;15.808;2023-06-26T01:22:32;11.90;;;8.10;;
81531;SDS011;70975;45.808;15.808;2023-06-26T01:27:50;13.18;;;8.20;;
81531;SDS011;70975;45.808;15.808;2023-06-26T01:30:18;11.80;;;8.40;;
81531;SDS011;70975;45.808;15.808;2023-06-26T01:32:44;14.25;;;8.25;;
81531;SDS011;70975;45.808;15.808;2023-06-26T01:35:10;12.75;;;8.50;;
81531;SDS011;70975;45.808;15.808;2023-06-26T01:37:36;14.85;;;8.50;;
81531;SDS011;70975;45.808;15.808;2023-06-26T01:40:01;12.80;;;7.90;;
81531;SDS011;70975;45.808;15.808;2023-06-26T01:42:30;13.63;;;8.90;;
81531;SDS011;70975;45.808;15.808;2023-06-26T01:44:56;12.43;;;8.77;;
81531;SDS011;70975;45.808;15.808;2023-06-26T01:47:22;11.98;;;7.60;;
81531;SDS011;70975;45.808;15.808;2023-06-26T01:49:59;14.27;;;8.32;;
81531;SDS011;70975;45.808;15.808;2023-06-26T01:52:28;12.45;;;8.27;;
81531;SDS011;70975;45.808;15.808;2023-06-26T01:58:01;11.52;;;7.47;;
81531;SDS011;70975;45.808;15.808;2023-06-26T02:00:27;12.82;;;8.35;;
81531;SDS011;70975;45.808;15.808;2023-06-26T02:02:53;12.20;;;8.07;;
81531;SDS011;70975;45.808;15.808;2023-06-26T02:05:18;13.40;;;8.07;;
81531;SDS011;70975;45.808;15.808;2023-06-26T02:07:43;11.95;;;8.30;;
81531;SDS011;70975;45.808;15.808;2023-06-26T02:10:09;12.13;;;8.48;;
81531;SDS011;70975;45.808;15.808;2023-06-26T02:12:35;13.48;;;8.13;;
81531;SDS011;70975;45.808;15.808;2023-06-26T02:15:01;11.27;;;7.82;;
81531;SDS011;70975;45.808;15.808;2023-06-26T02:17:27;14.05;;;7.90;;
81531;SDS011;70975;45.808;15.808;2023-06-26T02:19:53;11.60;;;8.32;;
81531;SDS011;70975;45.808;15.808;2023-06-26T02:22:18;12.48;;;8.43;;
81531;SDS011;70975;45.808;15.808;2023-06-26T02:24:43;12.13;;;7.82;;
81531;SDS011;70975;45.808;15.808;2023-06-26T02:27:09;14.10;;;7.88;;
81531;SDS011;70975;45.808;15.808;2023-06-26T02:29:34;11.85;;;7.88;;
81531;SDS011;70975;45.808;15.808;2023-06-26T02:32:00;11.35;;;7.13;;
81531;SDS011;70975;45.808;15.808;2023-06-26T02:34:25;12.77;;;7.82;;
81531;SDS011;70975;45.808;15.808;2023-06-26T02:36:51;12.02;;;7.38;;
81531;SDS011;70975;45.808;15.808;2023-06-26T02:39:19;11.88;;;7.30;;
81531;SDS011;70975;45.808;15.808;2023-06-26T02:41:45;11.25;;;7.47;;
81531;SDS011;70975;45.808;15.808;2023-06-26T02:44:10;9.38;;;7.15;;
81531;SDS011;70975;45.808;15.808;2023-06-26T02:46:37;9.95;;;7.43;;
81531;SDS011;70975;45.808;15.808;2023-06-26T02:49:02;11.07;;;7.05;;
81531;SDS011;70975;45.808;15.808;2023-06-26T02:51:28;13.10;;;6.93;;
81531;SDS011;70975;45.808;15.808;2023-06-26T02:53:53;10.38;;;7.32;;
81531;SDS011;70975;45.808;15.808;2023-06-26T02:56:19;10.13;;;7.35;;
81531;SDS011;70975;45.808;15.808;2023-06-26T02:58:44;12.13;;;7.20;;
81531;SDS011;70975;45.808;15.808;2023-06-26T03:01:09;11.00;;;7.38;;
81531;SDS011;70975;45.808;15.808;2023-06-26T03:03:35;12.85;;;8.00;;
81531;SDS011;70975;45.808;15.808;2023-06-26T03:06:08;12.98;;;7.93;;
81531;SDS011;70975;45.808;15.808;2023-06-26T03:08:36;10.13;;;7.20;;
81531;SDS011;70975;45.808;15.808;2023-06-26T03:11:01;10.48;;;7.40;;
81531;SDS011;70975;45.808;15.808;2023-06-26T03:13:27;13.27;;;7.85;;
81531;SDS011;70975;45.808;15.808;2023-06-26T03:15:52;12.27;;;8.00;;
81531;SDS011;70975;45.808;15.808;2023-06-26T03:18:17;10.57;;;7.22;;
81531;SDS011;70975;45.808;15.808;2023-06-26T03:20:43;10.90;;;7.60;;
81531;SDS011;70975;45.808;15.808;2023-06-26T03:23:09;12.77;;;7.90;;
81531;SDS011;70975;45.808;15.808;2023-06-26T03:25:34;10.45;;;7.88;;
81531;SDS011;70975;45.808;15.808;2023-06-26T03:27:59;10.15;;;7.55;;
81531;SDS011;70975;45.808;15.808;2023-06-26T03:30:25;10.55;;;7.40;;
81531;SDS011;70975;45.808;15.808;2023-06-26T03:32:50;11.05;;;7.47;;
81531;SDS011;70975;45.808;15.808;2023-06-26T03:35:15;11.65;;;8.23;;
81531;SDS011;70975;45.808;15.808;2023-06-26T03:37:41;10.65;;;7.95;;
81531;SDS011;70975;45.808;15.808;2023-06-26T03:40:06;12.27;;;7.93;;
81531;SDS011;70975;45.808;15.808;2023-06-26T03:42:32;12.18;;;8.27;;
81531;SDS011;70975;45.808;15.808;2023-06-26T03:44:58;10.02;;;7.70;;
81531;SDS011;70975;45.808;15.808;2023-06-26T03:47:23;10.90;;;7.85;;
81531;SDS011;70975;45.808;15.808;2023-06-26T03:49:49;13.82;;;7.68;;
81531;SDS011;70975;45.808;15.808;2023-06-26T03:52:14;10.40;;;7.75;;
81531;SDS011;70975;45.808;15.808;2023-06-26T03:54:39;11.63;;;7.57;;
81531;SDS011;70975;45.808;15.808;2023-06-26T03:57:05;12.07;;;7.78;;
81531;SDS011;70975;45.808;15.808;2023-06-26T03:59:30;11.75;;;7.53;;
81531;SDS011;70975;45.808;15.808;2023-06-26T04:01:56;10.77;;;7.80;;
81531;SDS011;70975;45.808;15.808;2023-06-26T04:04:21;12.80;;;8.13;;
81531;SDS011;70975;45.808;15.808;2023-06-26T04:06:47;12.15;;;7.88;;
81531;SDS011;70975;45.808;15.808;2023-06-26T04:09:12;11.48;;;7.95;;
81531;SDS011;70975;45.808;15.808;2023-06-26T04:11:37;12.00;;;7.43;;
81531;SDS011;70975;45.808;15.808;2023-06-26T04:14:03;10.63;;;7.28;;
81531;SDS011;70975;45.808;15.808;2023-06-26T04:16:28;11.43;;;7.38;;
81531;SDS011;70975;45.808;15.808;2023-06-26T04:18:54;12.43;;;7.38;;
81531;SDS011;70975;45.808;15.808;2023-06-26T04:21:21;10.82;;;7.30;;
81531;SDS011;70975;45.808;15.808;2023-06-26T04:23:48;12.77;;;7.15;;
81531;SDS011;70975;45.808;15.808;2023-06-26T04:26:14;9.32;;;6.38;;
81531;SDS011;70975;45.808;15.808;2023-06-26T04:28:40;10.13;;;7.13;;
81531;SDS011;70975;45.808;15.808;2023-06-26T04:31:05;10.60;;;7.25;;
81531;SDS011;70975;45.808;15.808;2023-06-26T04:33:31;9.68;;;7.07;;
81531;SDS011;70975;45.808;15.808;2023-06-26T04:35:56;9.23;;;6.65;;
81531;SDS011;70975;45.808;15.808;2023-06-26T04:38:22;12.38;;;7.20;;
81531;SDS011;70975;45.808;15.808;2023-06-26T04:40:48;9.93;;;6.57;;
81531;SDS011;70975;45.808;15.808;2023-06-26T04:43:14;11.32;;;7.32;;
81531;SDS011;70975;45.808;15.808;2023-06-26T04:45:39;9.35;;;6.03;;
81531;SDS011;70975;45.808;15.808;2023-06-26T04:48:05;9.23;;;6.80;;
81531;SDS011;70975;45.808;15.808;2023-06-26T04:50:34;9.80;;;7.30;;
81531;SDS011;70975;45.808;15.808;2023-06-26T04:53:00;10.25;;;6.38;;
81531;SDS011;70975;45.808;15.808;2023-06-26T04:55:25;10.98;;;7.20;;
81531;SDS011;70975;45.808;15.808;2023-06-26T04:57:51;10.35;;;6.28;;
81531;SDS011;70975;45.808;15.808;2023-06-26T05:00:17;8.80;;;7.00;;
81531;SDS011;70975;45.808;15.808;2023-06-26T05:02:42;9.25;;;7.18;;
81531;SDS011;70975;45.808;15.808;2023-06-26T05:05:08;9.80;;;7.18;;
81531;SDS011;70975;45.808;15.808;2023-06-26T05:07:33;9.20;;;6.70;;
81531;SDS011;70975;45.808;15.808;2023-06-26T05:09:59;8.75;;;6.40;;
81531;SDS011;70975;45.808;15.808;2023-06-26T05:12:24;8.70;;;6.43;;
81531;SDS011;70975;45.808;15.808;2023-06-26T05:14:49;8.65;;;6.70;;
81531;SDS011;70975;45.808;15.808;2023-06-26T05:17:15;10.15;;;6.68;;
81531;SDS011;70975;45.808;15.808;2023-06-26T05:19:40;9.40;;;7.38;;
81531;SDS011;70975;45.808;15.808;2023-06-26T05:22:06;9.27;;;7.03;;
81531;SDS011;70975;45.808;15.808;2023-06-26T05:24:35;7.90;;;6.78;;
81531;SDS011;70975;45.808;15.808;2023-06-26T05:27:02;10.18;;;7.38;;
81531;SDS011;70975;45.808;15.808;2023-06-26T05:29:28;9.00;;;6.80;;
81531;SDS011;70975;45.808;15.808;2023-06-26T05:31:57;10.30;;;7.68;;
81531;SDS011;70975;45.808;15.808;2023-06-26T05:34:23;8.30;;;7.07;;
81531;SDS011;70975;45.808;15.808;2023-06-26T05:36:52;9.15;;;7.20;;
81531;SDS011;70975;45.808;15.808;2023-06-26T05:39:23;10.88;;;7.90;;
81531;SDS011;70975;45.808;15.808;2023-06-26T05:41:49;8.27;;;7.00;;
81531;SDS011;70975;45.808;15.808;2023-06-26T05:44:15;9.98;;;7.78;;
81531;SDS011;70975;45.808;15.808;2023-06-26T05:46:40;9.02;;;7.45;;
81531;SDS011;70975;45.808;15.808;2023-06-26T05:49:06;9.50;;;7.28;;
81531;SDS011;70975;45.808;15.808;2023-06-26T05:51:31;8.63;;;7.05;;
81531;SDS011;70975;45.808;15.808;2023-06-26T05:53:57;8.63;;;7.18;;
81531;SDS011;70975;45.808;15.808;2023-06-26T05:56:22;8.65;;;7.03;;
81531;SDS011;70975;45.808;15.808;2023-06-26T05:58:48;8.68;;;7.25;;
81531;SDS011;70975;45.808;15.808;2023-06-26T06:01:14;8.00;;;6.72;;
81531;SDS011;70975;45.808;15.808;2023-06-26T06:03:40;9.90;;;7.10;;
81531;SDS011;70975;45.808;15.808;2023-06-26T06:06:06;10.80;;;7.93;;
81531;SDS011;70975;45.808;15.808;2023-06-26T06:08:31;8.93;;;7.50;;
81531;SDS011;70975;45.808;15.808;2023-06-26T06:10:57;10.18;;;7.40;;
81531;SDS011;70975;45.808;15.808;2023-06-26T06:13:22;10.85;;;7.38;;
81531;SDS011;70975;45.808;15.808;2023-06-26T06:15:48;9.52;;;7.32;;
81531;SDS011;70975;45.808;15.808;2023-06-26T06:18:14;9.05;;;7.20;;
81531;SDS011;70975;45.808;15.808;2023-06-26T06:20:39;8.93;;;7.40;;
81531;SDS011;70975;45.808;15.808;2023-06-26T06:23:05;8.90;;;7.20;;
81531;SDS011;70975;45.808;15.808;2023-06-26T06:25:31;10.95;;;7.28;;
81531;SDS011;70975;45.808;15.808;2023-06-26T06:27:56;8.27;;;7.13;;
81531;SDS011;70975;45.808;15.808;2023-06-26T06:30:22;11.77;;;7.53;;
81531;SDS011;70975;45.808;15.808;2023-06-26T06:32:47;11.20;;;7.70;;
81531;SDS011;70975;45.808;15.808;2023-06-26T06:35:16;8.77;;;6.95;;
81531;SDS011;70975;45.808;15.808;2023-06-26T06:37:42;7.80;;;6.90;;
81531;SDS011;70975;45.808;15.808;2023-06-26T06:40:09;8.57;;;7.10;;
81531;SDS011;70975;45.808;15.808;2023-06-26T06:42:35;8.63;;;7.72;;
81531;SDS011;70975;45.808;15.808;2023-06-26T06:45:02;10.35;;;7.70;;
81531;SDS011;70975;45.808;15.808;2023-06-26T06:47:28;9.20;;;7.53;;
81531;SDS011;70975;45.808;15.808;2023-06-26T06:49:53;9.15;;;7.72;;
81531;SDS011;70975;45.808;15.808;2023-06-26T06:52:19;8.23;;;7.13;;
81531;SDS011;70975;45.808;15.808;2023-06-26T06:54:54;8.75;;;7.85;;
81531;SDS011;70975;45.808;15.808;2023-06-26T06:59:46;8.88;;;7.07;;
81531;SDS011;70975;45.808;15.808;2023-06-26T07:02:12;10.02;;;7.18;;
81531;SDS011;70975;45.808;15.808;2023-06-26T07:04:39;9.48;;;7.25;;
81531;SDS011;70975;45.808;15.808;2023-06-26T07:07:05;8.77;;;7.43;;
81531;SDS011;70975;45.808;15.808;2023-06-26T07:09:30;10.27;;;7.70;;
81531;SDS011;70975;45.808;15.808;2023-06-26T07:11:55;9.93;;;7.90;;
81531;SDS011;70975;45.808;15.808;2023-06-26T07:14:21;11.18;;;7.50;;
81531;SDS011;70975;45.808;15.808;2023-06-26T07:16:46;9.45;;;8.45;;
81531;SDS011;70975;45.808;15.808;2023-06-26T07:19:11;8.77;;;7.75;;
81531;SDS011;70975;45.808;15.808;2023-06-26T07:21:37;8.82;;;7.45;;
81531;SDS011;70975;45.808;15.808;2023-06-26T07:24:02;9.43;;;7.65;;
81531;SDS011;70975;45.808;15.808;2023-06-26T07:26:28;8.80;;;8.00;;
81531;SDS011;70975;45.808;15.808;2023-06-26T07:28:53;8.65;;;7.75;;
81531;SDS011;70975;45.808;15.808;2023-06-26T07:31:21;9.52;;;7.32;;
81531;SDS011;70975;45.808;15.808;2023-06-26T07:33:47;8.07;;;7.28;;
81531;SDS011;70975;45.808;15.808;2023-06-26T07:36:12;8.75;;;7.88;;
81531;SDS011;70975;45.808;15.808;2023-06-26T07:38:38;9.07;;;8.18;;
81531;SDS011;70975;45.808;15.808;2023-06-26T07:41:03;10.50;;;8.32;;
81531;SDS011;70975;45.808;15.808;2023-06-26T07:43:28;9.15;;;7.65;;
81531;SDS011;70975;45.808;15.808;2023-06-26T07:45:54;10.45;;;8.25;;
81531;SDS011;70975;45.808;15.808;2023-06-26T07:48:19;10.20;;;8.55;;
81531;SDS011;70975;45.808;15.808;2023-06-26T07:50:45;9.63;;;8.63;;
81531;SDS011;70975;45.808;15.808;2023-06-26T07:53:10;10.35;;;7.93;;
81531;SDS011;70975;45.808;15.808;2023-06-26T07:55:35;9.32;;;8.40;;
81531;SDS011;70975;45.808;15.808;2023-06-26T07:58:01;9.38;;;8.40;;
81531;SDS011;70975;45.808;15.808;2023-06-26T08:00:26;11.38;;;8.00;;
81531;SDS011;70975;45.808;15.808;2023-06-26T08:02:52;9.23;;;8.32;;
81531;SDS011;70975;45.808;15.808;2023-06-26T08:05:17;9.18;;;8.27;;
81531;SDS011;70975;45.808;15.808;2023-06-26T08:07:43;12.05;;;8.52;;
81531;SDS011;70975;45.808;15.808;2023-06-26T08:10:09;9.35;;;8.07;;
81531;SDS011;70975;45.808;15.808;2023-06-26T08:12:34;12.20;;;8.30;;
81531;SDS011;70975;45.808;15.808;2023-06-26T08:15:01;9.38;;;8.18;;
81531;SDS011;70975;45.808;15.808;2023-06-26T08:17:28;9.75;;;8.82;;
81531;SDS011;70975;45.808;15.808;2023-06-26T08:19:53;9.65;;;8.75;;
81531;SDS011;70975;45.808;15.808;2023-06-26T08:22:19;10.43;;;8.63;;
81531;SDS011;70975;45.808;15.808;2023-06-26T08:24:44;9.05;;;8.15;;
81531;SDS011;70975;45.808;15.808;2023-06-26T08:27:09;9.40;;;8.50;;
81531;SDS011;70975;45.808;15.808;2023-06-26T08:29:35;11.13;;;8.65;;
81531;SDS011;70975;45.808;15.808;2023-06-26T08:32:00;8.25;;;7.32;;
81531;SDS011;70975;45.808;15.808;2023-06-26T08:34:27;7.95;;;7.22;;
81531;SDS011;70975;45.808;15.808;2023-06-26T08:36:52;8.20;;;7.47;;
81531;SDS011;70975;45.808;15.808;2023-06-26T08:39:18;8.90;;;7.88;;
81531;SDS011;70975;45.808;15.808;2023-06-26T08:41:43;8.48;;;7.55;;
81531;SDS011;70975;45.808;15.808;2023-06-26T08:44:09;9.25;;;8.35;;
81531;SDS011;70975;45.808;15.808;2023-06-26T08:46:35;9.55;;;8.60;;
81531;SDS011;70975;45.808;15.808;2023-06-26T08:49:01;8.90;;;8.02;;
81531;SDS011;70975;45.808;15.808;2023-06-26T08:51:33;10.02;;;8.45;;
81531;SDS011;70975;45.808;15.808;2023-06-26T08:53:59;8.00;;;7.25;;
81531;SDS011;70975;45.808;15.808;2023-06-26T08:56:31;8.27;;;7.57;;
81531;SDS011;70975;45.808;15.808;2023-06-26T08:58:58;8.55;;;7.75;;
81531;SDS011;70975;45.808;15.808;2023-06-26T09:01:24;9.18;;;8.20;;
81531;SDS011;70975;45.808;15.808;2023-06-26T09:03:50;8.95;;;8.15;;
81531;SDS011;70975;45.808;15.808;2023-06-26T09:06:16;8.43;;;7.63;;
81531;SDS011;70975;45.808;15.808;2023-06-26T09:08:43;8.80;;;7.90;;
81531;SDS011;70975;45.808;15.808;2023-06-26T09:11:08;9.43;;;7.78;;
81531;SDS011;70975;45.808;15.808;2023-06-26T09:13:34;8.80;;;7.93;;
81531;SDS011;70975;45.808;15.808;2023-06-26T09:15:59;8.00;;;7.20;;
81531;SDS011;70975;45.808;15.808;2023-06-26T09:18:30;8.45;;;7.00;;
81531;SDS011;70975;45.808;15.808;2023-06-26T09:20:57;7.72;;;7.03;;
81531;SDS011;70975;45.808;15.808;2023-06-26T09:23:23;7.07;;;6.38;;
81531;SDS011;70975;45.808;15.808;2023-06-26T09:25:49;7.53;;;6.72;;
81531;SDS011;70975;45.808;15.808;2023-06-26T09:28:16;7.50;;;6.80;;
81531;SDS011;70975;45.808;15.808;2023-06-26T09:30:41;7.70;;;6.90;;
81531;SDS011;70975;45.808;15.808;2023-06-26T09:33:13;6.82;;;6.13;;
81531;SDS011;70975;45.808;15.808;2023-06-26T09:35:40;7.43;;;6.72;;
81531;SDS011;70975;45.808;15.808;2023-06-26T09:38:06;7.70;;;6.95;;
81531;SDS011;70975;45.808;15.808;2023-06-26T09:40:31;7.35;;;6.65;;
81531;SDS011;70975;45.808;15.808;2023-06-26T09:43:05;7.90;;;7.13;;
81531;SDS011;70975;45.808;15.808;2023-06-26T09:45:36;8.15;;;6.45;;
81531;SDS011;70975;45.808;15.808;2023-06-26T09:48:02;7.40;;;6.78;;
81531;SDS011;70975;45.808;15.808;2023-06-26T09:50:28;7.80;;;7.15;;
81531;SDS011;70975;45.808;15.808;2023-06-26T09:52:54;9.35;;;8.55;;
81531;SDS011;70975;45.808;15.808;2023-06-26T09:55:20;7.68;;;7.00;;
81531;SDS011;70975;45.808;15.808;2023-06-26T09:57:51;7.88;;;7.18;;
81531;SDS011;70975;45.808;15.808;2023-06-26T10:00:17;7.55;;;6.95;;
81531;SDS011;70975;45.808;15.808;2023-06-26T10:02:43;8.23;;;7.50;;
81531;SDS011;70975;45.808;15.808;2023-06-26T10:05:09;7.53;;;6.82;;
81531;SDS011;70975;45.808;15.808;2023-06-26T10:07:35;8.75;;;7.60;;
81531;SDS011;70975;45.808;15.808;2023-06-26T10:10:00;8.43;;;7.57;;
81531;SDS011;70975;45.808;15.808;2023-06-26T10:12:28;8.85;;;8.07;;
81531;SDS011;70975;45.808;15.808;2023-06-26T10:14:57;9.18;;;7.80;;
81531;SDS011;70975;45.808;15.808;2023-06-26T10:17:24;8.35;;;7.55;;
81531;SDS011;70975;45.808;15.808;2023-06-26T10:19:50;9.80;;;9.10;;
81531;SDS011;70975;45.808;15.808;2023-06-26T10:22:21;8.98;;;8.18;;
81531;SDS011;70975;45.808;15.808;2023-06-26T10:24:52;9.05;;;8.15;;
81531;SDS011;70975;45.808;15.808;2023-06-26T10:27:18;9.27;;;8.20;;
81531;SDS011;70975;45.808;15.808;2023-06-26T10:29:54;8.88;;;8.07;;
81531;SDS011;70975;45.808;15.808;2023-06-26T10:32:21;9.00;;;8.10;;
81531;SDS011;70975;45.808;15.808;2023-06-26T10:34:49;8.45;;;7.32;;
81531;SDS011;70975;45.808;15.808;2023-06-26T10:37:15;8.23;;;7.53;;
81531;SDS011;70975;45.808;15.808;2023-06-26T10:39:47;8.23;;;7.53;;
81531;SDS011;70975;45.808;15.808;2023-06-26T10:42:14;8.80;;;7.97;;
81531;SDS011;70975;45.808;15.808;2023-06-26T10:44:44;9.18;;;8.27;;
81531;SDS011;70975;45.808;15.808;2023-06-26T10:47:11;9.18;;;8.38;;
81531;SDS011;70975;45.808;15.808;2023-06-26T10:49:37;9.65;;;8.75;;
81531;SDS011;70975;45.808;15.808;2023-06-26T10:52:07;10.88;;;8.73;;
81531;SDS011;70975;45.808;15.808;2023-06-26T10:54:33;8.98;;;8.18;;
81531;SDS011;70975;45.808;15.808;2023-06-26T10:56:59;9.40;;;7.53;;
81531;SDS011;70975;45.808;15.808;2023-06-26T10:59:28;8.52;;;7.63;;
81531;SDS011;70975;45.808;15.808;2023-06-26T11:07:14;8.73;;;7.57;;
81531;SDS011;70975;45.808;15.808;2023-06-26T11:09:59;8.93;;;7.80;;
81531;SDS011;70975;45.808;15.808;2023-06-26T11:12:35;9.23;;;7.47;;
81531;SDS011;70975;45.808;15.808;2023-06-26T11:15:12;8.45;;;7.38;;
81531;SDS011;70975;45.808;15.808;2023-06-26T11:17:38;8.70;;;7.80;;
81531;SDS011;70975;45.808;15.808;2023-06-26T11:20:08;8.40;;;7.55;;
81531;SDS011;70975;45.808;15.808;2023-06-26T11:22:35;10.57;;;7.45;;
81531;SDS011;70975;45.808;15.808;2023-06-26T11:25:02;8.18;;;7.38;;
81531;SDS011;70975;45.808;15.808;2023-06-26T11:27:46;9.45;;;7.70;;
81531;SDS011;70975;45.808;15.808;2023-06-26T11:30:22;10.23;;;9.18;;
81531;SDS011;70975;45.808;15.808;2023-06-26T11:32:48;8.95;;;8.05;;
81531;SDS011;70975;45.808;15.808;2023-06-26T11:35:21;9.27;;;8.35;;
81531;SDS011;70975;45.808;15.808;2023-06-26T11:37:58;8.80;;;7.90;;
81531;SDS011;70975;45.808;15.808;2023-06-26T11:40:30;8.93;;;8.13;;
81531;SDS011;70975;45.808;15.808;2023-06-26T11:42:59;8.85;;;8.00;;
81531;SDS011;70975;45.808;15.808;2023-06-26T11:45:25;9.65;;;8.43;;
81531;SDS011;70975;45.808;15.808;2023-06-26T11:47:54;9.25;;;8.45;;
81531;SDS011;70975;45.808;15.808;2023-06-26T11:50:20;9.93;;;8.95;;
81531;SDS011;70975;45.808;15.808;2023-06-26T11:52:45;8.93;;;8.02;;
81531;SDS011;70975;45.808;15.808;2023-06-26T11:55:18;9.05;;;8.00;;
81531;SDS011;70975;45.808;15.808;2023-06-26T11:57:47;9.27;;;8.43;;
81531;SDS011;70975;45.808;15.808;2023-06-26T12:00:14;8.95;;;8.13;;
81531;SDS011;70975;45.808;15.808;2023-06-26T12:02:41;9.40;;;8.55;;
81531;SDS011;70975;45.808;15.808;2023-06-26T12:05:07;8.43;;;7.50;;
81531;SDS011;70975;45.808;15.808;2023-06-26T12:07:33;8.02;;;7.32;;
81531;SDS011;70975;45.808;15.808;2023-06-26T12:10:00;8.43;;;7.63;;
81531;SDS011;70975;45.808;15.808;2023-06-26T12:12:26;8.15;;;7.35;;
81531;SDS011;70975;45.808;15.808;2023-06-26T12:14:51;9.57;;;7.68;;
81531;SDS011;70975;45.808;15.808;2023-06-26T12:17:17;9.02;;;8.13;;
81531;SDS011;70975;45.808;15.808;2023-06-26T12:19:45;8.70;;;7.90;;
81531;SDS011;70975;45.808;15.808;2023-06-26T12:22:15;10.70;;;8.57;;
81531;SDS011;70975;45.808;15.808;2023-06-26T12:24:41;8.30;;;7.43;;
81531;SDS011;70975;45.808;15.808;2023-06-26T12:27:09;8.00;;;7.18;;
81531;SDS011;70975;45.808;15.808;2023-06-26T12:29:35;9.30;;;7.75;;
81531;SDS011;70975;45.808;15.808;2023-06-26T12:32:01;7.80;;;7.00;;
81531;SDS011;70975;45.808;15.808;2023-06-26T12:34:33;10.13;;;7.72;;
81531;SDS011;70975;45.808;15.808;2023-06-26T12:37:00;7.22;;;6.53;;
81531;SDS011;70975;45.808;15.808;2023-06-26T12:39:27;9.35;;;7.82;;
81531;SDS011;70975;45.808;15.808;2023-06-26T12:42:02;8.85;;;7.20;;
81531;SDS011;70975;45.808;15.808;2023-06-26T12:44:28;7.60;;;6.80;;
81531;SDS011;70975;45.808;15.808;2023-06-26T12:46:55;7.35;;;6.55;;
81531;SDS011;70975;45.808;15.808;2023-06-26T12:49:34;8.00;;;7.22;;
81531;SDS011;70975;45.808;15.808;2023-06-26T12:52:08;8.32;;;7.15;;
81531;SDS011;70975;45.808;15.808;2023-06-26T12:54:39;8.27;;;7.30;;
81531;SDS011;70975;45.808;15.808;2023-06-26T12:57:05;8.68;;;6.47;;
81531;SDS011;70975;45.808;15.808;2023-06-26T12:59:31;7.20;;;6.20;;
81531;SDS011;70975;45.808;15.808;2023-06-26T13:01:57;8.27;;;6.90;;
81531;SDS011;70975;45.808;15.808;2023-06-26T13:04:23;7.53;;;6.43;;
81531;SDS011;70975;45.808;15.808;2023-06-26T13:06:48;8.02;;;6.90;;
81531;SDS011;70975;45.808;15.808;2023-06-26T13:09:14;9.98;;;6.90;;
81531;SDS011;70975;45.808;15.808;2023-06-26T13:11:40;7.75;;;6.95;;
81531;SDS011;70975;45.808;15.808;2023-06-26T13:14:05;7.15;;;6.45;;
81531;SDS011;70975;45.808;15.808;2023-06-26T13:16:31;8.02;;;6.75;;
81531;SDS011;70975;45.808;15.808;2023-06-26T13:18:57;8.13;;;7.32;;
81531;SDS011;70975;45.808;15.808;2023-06-26T13:21:23;8.10;;;6.82;;
81531;SDS011;70975;45.808;15.808;2023-06-26T13:23:48;8.20;;;7.40;;
81531;SDS011;70975;45.808;15.808;2023-06-26T13:26:14;8.20;;;7.28;;
81531;SDS011;70975;45.808;15.808;2023-06-26T13:28:39;8.25;;;6.63;;
81531;SDS011;70975;45.808;15.808;2023-06-26T13:31:05;8.95;;;7.30;;
81531;SDS011;70975;45.808;15.808;2023-06-26T13:33:31;7.93;;;7.13;;
81531;SDS011;70975;45.808;15.808;2023-06-26T13:35:56;8.93;;;7.53;;
81531;SDS011;70975;45.808;15.808;2023-06-26T13:38:22;9.57;;;6.65;;
81531;SDS011;70975;45.808;15.808;2023-06-26T13:40:58;8.02;;;6.47;;
81531;SDS011;70975;45.808;15.808;2023-06-26T13:43:25;8.05;;;7.25;;
81531;SDS011;70975;45.808;15.808;2023-06-26T13:45:51;10.68;;;6.80;;
81531;SDS011;70975;45.808;15.808;2023-06-26T13:48:17;7.45;;;6.60;;
81531;SDS011;70975;45.808;15.808;2023-06-26T13:50:42;7.10;;;6.40;;
81531;SDS011;70975;45.808;15.808;2023-06-26T13:53:08;7.50;;;6.30;;
81531;SDS011;70975;45.808;15.808;2023-06-26T13:55:34;8.48;;;7.07;;
81531;SDS011;70975;45.808;15.808;2023-06-26T13:57:59;7.20;;;6.00;;
81531;SDS011;70975;45.808;15.808;2023-06-26T14:00:28;6.68;;;5.53;;
81531;SDS011;70975;45.808;15.808;2023-06-26T14:02:53;6.63;;;5.75;;
81531;SDS011;70975;45.808;15.808;2023-06-26T14:05:21;8.32;;;5.60;;
81531;SDS011;70975;45.808;15.808;2023-06-26T14:07:47;6.50;;;5.80;;
81531;SDS011;70975;45.808;15.808;2023-06-26T14:10:13;7.75;;;6.43;;
81531;SDS011;70975;45.808;15.808;2023-06-26T14:12:39;6.90;;;6.20;;
81531;SDS011;70975;45.808;15.808;2023-06-26T14:15:05;7.07;;;6.38;;
81531;SDS011;70975;45.808;15.808;2023-06-26T14:17:31;9.32;;;6.57;;
81531;SDS011;70975;45.808;15.808;2023-06-26T14:19:56;7.47;;;6.68;;
81531;SDS011;70975;45.808;15.808;2023-06-26T14:22:22;8.70;;;6.32;;
81531;SDS011;70975;45.808;15.808;2023-06-26T14:24:48;7.38;;;6.68;;
81531;SDS011;70975;45.808;15.808;2023-06-26T14:27:14;8.27;;;6.82;;
81531;SDS011;70975;45.808;15.808;2023-06-26T14:29:39;7.45;;;6.53;;
81531;SDS011;70975;45.808;15.808;2023-06-26T14:32:05;8.77;;;6.30;;
81531;SDS011;70975;45.808;15.808;2023-06-26T14:34:31;7.25;;;6.00;;
81531;SDS011;70975;45.808;15.808;2023-06-26T14:36:56;8.25;;;6.45;;
81531;SDS011;70975;45.808;15.808;2023-06-26T14:39:22;7.97;;;6.20;;